Terminal Aerodrome Forecast
Issued by NWS

Home | Current Version | Previous Version | Text Only | Print | Product List | Glossary On
Versions: 1 2 3 4 5 6 7 8 9 10 11 12 13 14 15 16 17 18 19 20 21 22 23 24 25 26 27 28 29 30 31 32 33 34
000
FTUS45 KBOU 301120
TAFBJC
TAF
KBJC 301120Z 3012/3112 VRB04KT P6SM FEW120
     FM301800 13008KT P6SM FEW090 SCT140
     FM302100 24010KT P6SM SCT090 BKN140 PROB30 3021/3101 VRB20G30KT
      -TSRA BKN090CB
     FM310400 30008KT P6SM SCT090 BKN140=

USA.gov is the U.S. government's official web portal to all federal, state and local government web resources and services.